Delta Virtual Airport Information Service

Grand Rapids Gerald R. Ford International Airport

ICAO: KGRR Country: United States
Latitude: 42.8808 Longitude: -85.5228
Latest Arrival : DAL2820 (B) (KMSP-KGRR) Latest Departure : DAC434 (KGRR-KDTW)


WX CaptureLIVE
Data provided by noaa.gov | Fetched at 06:00:57

METAR : KGRR 311053Z 01003KT 10SM CLR 06/01 A3034 RMK AO2 SLP277 T00560011 $

TAF : KGRR 310520Z 3106/0106 01007KT P6SM SKC FM311700 27008KT P6SM SKC


Runway Data for KGRR
Data provided by openaviationdata.com

Runway ID Mag Var Hdg Length Elevation Surface ILS Freq ILS Id ILS Slope
08L -4 85° 4992 ft 794 ft Concrete -- -- --
08R -4 85° 9984 ft 794 ft Concrete 108.3 ICYZ 3
17 -4 175° 8503 ft 794 ft Concrete -- -- --
26L -4 265° 9984 ft 794 ft Concrete 109.7 IGRR 3
26R -4 265° 4992 ft 794 ft Concrete -- -- --
35 -4 355° 8503 ft 794 ft Concrete 111.9 IDVS 3

Grand Rapids Gerald R. Ford International Airport, United States
Use only for reference purposes



Not for navigational purposes.